Time;durP1;ratioP1;P1;durP2;ratioP2;P2;SDS_P1;SDS_P2;PMS_P1;PMS_P2;Temp;Humidity;BMP_temperature;BMP_pressure;BME280_temperature;BME280_humidity;BME280_pressure;Samples;Min_cycle;Max_cycle;Signal;HPM_P1;HPM_P2
2021/01/13 00:02:24;;;;;;;8.57;4.30;;;6.50;96.50;;;;;;5054311;28;20373;-74
2021/01/13 00:04:50;;;;;;;8.83;4.70;;;6.50;96.40;;;;;;5054836;28;20413;-74
2021/01/13 00:07:16;;;;;;;8.90;5.00;;;6.50;96.50;;;;;;5052088;28;20633;-72
2021/01/13 00:09:42;;;;;;;8.60;4.60;;;6.40;97.00;;;;;;5055032;28;20610;-74
2021/01/13 00:12:08;;;;;;;12.80;6.00;;;6.50;96.70;;;;;;5054097;28;20527;-74
2021/01/13 00:14:34;;;;;;;10.67;4.80;;;6.50;96.50;;;;;;5054612;28;20177;-73
2021/01/13 00:17:00;;;;;;;8.40;4.72;;;6.40;96.40;;;;;;5055061;28;20405;-74
2021/01/13 00:19:25;;;;;;;7.00;4.53;;;6.40;96.60;;;;;;5053962;28;20216;-73
2021/01/13 00:21:54;;;;;;;13.07;4.93;;;6.40;96.60;;;;;;5054211;28;20395;-72
2021/01/13 00:24:21;;;;;;;6.07;4.95;;;6.40;96.50;;;;;;5053994;28;20182;-73
2021/01/13 00:26:47;;;;;;;10.30;5.17;;;6.40;96.40;;;;;;5054689;28;20320;-73
2021/01/13 00:29:17;;;;;;;5.57;4.67;;;6.50;96.40;;;;;;5053817;28;20500;-73
2021/01/13 00:31:43;;;;;;;8.10;4.80;;;6.40;96.30;;;;;;5054963;28;20227;-73
2021/01/13 00:34:13;;;;;;;10.10;5.00;;;6.40;96.40;;;;;;5052989;28;20178;-73
2021/01/13 00:36:39;;;;;;;9.68;4.80;;;6.40;96.40;;;;;;5053719;28;20185;-73
2021/01/13 00:39:06;;;;;;;6.90;4.60;;;6.50;96.30;;;;;;5053924;28;20202;-73
2021/01/13 00:41:32;;;;;;;5.72;4.22;;;6.40;96.40;;;;;;5053878;28;20224;-73
2021/01/13 00:43:58;;;;;;;7.72;4.20;;;6.40;96.30;;;;;;5054325;28;20219;-73
2021/01/13 00:46:24;;;;;;;6.30;4.27;;;6.50;96.30;;;;;;5053611;28;20818;-74
2021/01/13 00:48:50;;;;;;;9.03;4.20;;;6.40;96.10;;;;;;5054026;28;20378;-73
2021/01/13 00:51:16;;;;;;;5.20;4.20;;;6.40;96.30;;;;;;5053532;28;20490;-74
2021/01/13 00:53:42;;;;;;;6.32;4.70;;;6.40;96.40;;;;;;5054327;28;20196;-73
2021/01/13 00:56:08;;;;;;;13.13;4.43;;;6.40;96.30;;;;;;5053276;28;20178;-74
2021/01/13 00:58:35;;;;;;;6.57;4.40;;;6.40;96.30;;;;;;5054034;28;20206;-74
2021/01/13 01:01:01;;;;;;;11.93;4.35;;;6.40;96.30;;;;;;5053646;28;20206;-74
2021/01/13 01:03:27;;;;;;;7.37;4.13;;;6.30;96.30;;;;;;5051731;28;20178;-75
2021/01/13 01:05:53;;;;;;;12.80;4.10;;;6.40;96.30;;;;;;5053691;28;20771;-77
2021/01/13 01:08:19;;;;;;;7.80;4.70;;;6.40;96.10;;;;;;5053036;28;20177;-73
2021/01/13 01:10:56;;;;;;;6.80;4.07;;;6.40;96.10;;;;;;5053760;28;20252;-74
2021/01/13 01:13:22;;;;;;;12.80;4.53;;;6.40;96.20;;;;;;5053166;28;20534;-73
2021/01/13 01:15:47;;;;;;;5.60;4.40;;;6.40;95.90;;;;;;5054021;28;20174;-73
2021/01/13 01:18:13;;;;;;;7.57;4.80;;;6.40;95.90;;;;;;5053033;28;20202;-73
2021/01/13 01:20:39;;;;;;;7.03;4.10;;;6.40;96.10;;;;;;5052192;28;20190;-73
2021/01/13 01:23:05;;;;;;;11.80;4.70;;;6.40;95.90;;;;;;5053612;28;20391;-73
2021/01/13 01:25:31;;;;;;;5.80;4.47;;;6.40;95.90;;;;;;5052828;28;20237;-73
2021/01/13 01:28:00;;;;;;;10.30;4.70;;;6.30;96.00;;;;;;5053678;28;20198;-73
2021/01/13 01:30:27;;;;;;;5.88;4.05;;;6.30;96.00;;;;;;5052782;28;20465;-73
2021/01/13 01:32:54;;;;;;;10.17;4.90;;;6.30;96.00;;;;;;5053540;28;20272;-73
2021/01/13 01:35:20;;;;;;;8.32;4.90;;;6.30;96.10;;;;;;5052751;28;20750;-72
2021/01/13 01:37:46;;;;;;;11.37;5.90;;;6.40;96.10;;;;;;5053030;28;20209;-75
2021/01/13 01:40:15;;;;;;;8.23;5.20;;;6.30;96.00;;;;;;5052617;28;20742;-75
2021/01/13 01:42:49;;;;;;;9.43;5.75;;;6.30;95.90;;;;;;5053265;28;20552;-74
2021/01/13 01:45:18;;;;;;;8.13;5.30;;;6.30;95.90;;;;;;5052831;28;20173;-75
2021/01/13 01:48:01;;;;;;;8.73;5.65;;;6.40;95.90;;;;;;5053322;28;20196;-74
2021/01/13 01:50:33;;;;;;;7.45;5.47;;;6.40;95.90;;;;;;5052170;28;20178;-74
2021/01/13 01:53:17;;;;;;;8.45;6.32;;;6.30;95.90;;;;;;5052551;28;20570;-74
2021/01/13 01:55:46;;;;;;;12.73;6.53;;;6.30;96.00;;;;;;5051984;28;20196;-74
2021/01/13 01:58:13;;;;;;;9.52;6.55;;;6.30;96.00;;;;;;5051984;28;20294;-73
2021/01/13 02:00:39;;;;;;;10.67;7.10;;;6.30;96.00;;;;;;5052509;28;20181;-73
2021/01/13 02:03:16;;;;;;;12.85;7.30;;;6.30;96.00;;;;;;5052818;28;20457;-73
2021/01/13 02:05:43;;;;;;;11.63;6.88;;;6.30;96.00;;;;;;5052601;28;20180;-73
2021/01/13 02:08:21;;;;;;;10.80;6.70;;;6.30;95.90;;;;;;5052655;28;20193;-73
2021/01/13 02:10:50;;;;;;;9.80;7.35;;;6.30;96.00;;;;;;5052908;28;20166;-73
2021/01/13 02:13:19;;;;;;;12.57;7.45;;;6.30;96.10;;;;;;5052119;28;20181;-73
2021/01/13 02:15:47;;;;;;;10.10;8.68;;;6.30;96.10;;;;;;5051435;28;20613;-73
2021/01/13 02:18:16;;;;;;;8.23;6.85;;;6.30;96.20;;;;;;5053729;28;20216;-73
2021/01/13 02:20:45;;;;;;;10.23;7.10;;;6.30;96.00;;;;;;5061499;28;20185;-73
2021/01/13 02:23:46;;;;;;;11.65;7.50;;;6.50;96.10;;;;;;5059971;28;20236;-73
2021/01/13 02:27:05;;;;;;;11.10;7.75;;;6.40;95.90;;;;;;5057097;28;20260;-74
2021/01/13 02:29:47;;;;;;;11.15;7.30;;;6.40;95.80;;;;;;5029591;28;20672;-73
2021/01/13 02:32:25;;;;;;;11.38;7.85;;;6.40;95.80;;;;;;5071952;28;20162;-73
2021/01/13 02:35:09;;;;;;;17.27;8.70;;;6.40;95.90;;;;;;5072718;28;20675;-73
2021/01/13 02:38:02;;;;;;;10.33;8.23;;;6.40;95.90;;;;;;5052995;28;20186;-73
2021/01/13 02:40:30;;;;;;;8.77;7.85;;;6.30;95.80;;;;;;5056139;28;20895;-73
2021/01/13 02:43:06;;;;;;;11.53;8.60;;;6.30;95.80;;;;;;5061919;28;20269;-73
2021/01/13 02:45:41;;;;;;;10.35;7.60;;;6.30;95.90;;;;;;5058583;28;20903;-73
2021/01/13 02:48:09;;;;;;;11.10;8.60;;;6.30;95.90;;;;;;5092242;28;20648;-73
2021/01/13 02:50:43;;;;;;;10.32;8.70;;;6.30;95.80;;;;;;5062695;28;20208;-73
2021/01/13 02:53:15;;;;;;;9.77;8.60;;;6.30;95.80;;;;;;5061936;28;20164;-74
2021/01/13 02:55:46;;;;;;;9.75;7.40;;;6.20;96.00;;;;;;5058320;28;20239;-74
2021/01/13 02:58:14;;;;;;;12.48;7.20;;;6.20;96.00;;;;;;5059097;28;20218;-74
2021/01/13 03:00:40;;;;;;;12.48;8.70;;;6.20;96.00;;;;;;5061244;28;20205;-74
2021/01/13 03:03:06;;;;;;;10.50;7.35;;;6.20;96.00;;;;;;5061119;28;20244;-74
2021/01/13 03:05:33;;;;;;;9.18;7.95;;;6.20;96.00;;;;;;5058956;28;20374;-74
2021/01/13 03:08:00;;;;;;;13.02;7.63;;;6.10;96.10;;;;;;5059435;28;20173;-74
2021/01/13 03:10:27;;;;;;;11.63;7.75;;;6.10;96.10;;;;;;5061036;28;20193;-74
2021/01/13 03:13:00;;;;;;;11.98;7.45;;;6.10;96.30;;;;;;5060468;28;20183;-74
2021/01/13 03:15:27;;;;;;;13.75;8.50;;;6.20;96.30;;;;;;5060248;28;20171;-74
2021/01/13 03:18:18;;;;;;;11.00;8.02;;;6.20;96.30;;;;;;5060560;28;20216;-74
2021/01/13 03:21:08;;;;;;;15.57;8.63;;;6.20;96.30;;;;;;5061433;28;20188;-74
2021/01/13 03:23:55;;;;;;;8.02;6.88;;;6.20;96.40;;;;;;5058248;28;20177;-74
2021/01/13 03:26:30;;;;;;;11.20;6.93;;;6.20;96.50;;;;;;5076796;28;20973;-74
2021/01/13 03:28:58;;;;;;;11.75;7.35;;;6.20;96.50;;;;;;5065172;28;20174;-74
2021/01/13 03:31:30;;;;;;;11.88;6.63;;;6.20;96.50;;;;;;5062827;28;20177;-74
2021/01/13 03:34:11;;;;;;;8.93;6.70;;;6.20;96.60;;;;;;5064089;28;20498;-74
2021/01/13 03:36:48;;;;;;;12.98;6.60;;;6.20;96.60;;;;;;5060580;28;20192;-74
2021/01/13 03:39:20;;;;;;;9.40;6.70;;;6.20;96.80;;;;;;5054312;28;20205;-74
2021/01/13 03:41:52;;;;;;;9.05;6.75;;;6.20;96.80;;;;;;5055675;28;20300;-74
2021/01/13 03:44:24;;;;;;;7.43;6.45;;;6.20;96.90;;;;;;5055274;28;20207;-74
2021/01/13 03:46:50;;;;;;;11.25;6.80;;;6.30;96.90;;;;;;5055838;28;20185;-74
2021/01/13 03:49:20;;;;;;;11.70;6.43;;;6.30;96.90;;;;;;5054828;28;20177;-74
2021/01/13 03:52:04;;;;;;;8.38;6.80;;;6.30;96.80;;;;;;5055422;28;20170;-74
2021/01/13 03:54:34;;;;;;;8.32;5.95;;;6.30;96.60;;;;;;5054662;28;20181;-74
2021/01/13 03:57:05;;;;;;;14.07;6.15;;;6.30;96.70;;;;;;5055553;28;20244;-74
2021/01/13 03:59:52;;;;;;;9.10;6.55;;;6.30;96.80;;;;;;5054578;28;20297;-74
2021/01/13 04:02:24;;;;;;;9.60;6.30;;;6.30;96.70;;;;;;5054245;28;20249;-74
2021/01/13 04:04:58;;;;;;;8.32;6.25;;;6.30;96.60;;;;;;5055320;28;20637;-74
2021/01/13 04:07:35;;;;;;;8.05;5.95;;;6.30;96.60;;;;;;5055631;28;20184;-74
2021/01/13 04:10:05;;;;;;;7.57;5.75;;;6.30;96.70;;;;;;5057105;28;20517;-74
2021/01/13 04:12:37;;;;;;;10.10;7.10;;;6.30;96.60;;;;;;5055268;28;21054;-74
2021/01/13 04:15:04;;;;;;;10.93;6.32;;;6.40;96.60;;;;;;5055198;28;20174;-74
2021/01/13 04:17:30;;;;;;;8.80;6.70;;;6.30;96.60;;;;;;5053147;28;20186;-74
2021/01/13 04:19:55;;;;;;;8.53;6.17;;;6.30;96.70;;;;;;5054540;28;20965;-74
2021/01/13 04:22:26;;;;;;;8.77;6.10;;;6.30;96.60;;;;;;5054214;28;20869;-74
2021/01/13 04:24:52;;;;;;;6.68;6.15;;;6.30;96.50;;;;;;5055157;28;20439;-74
2021/01/13 04:27:19;;;;;;;8.95;5.90;;;6.30;96.50;;;;;;5053772;28;20182;-74
2021/01/13 04:29:45;;;;;;;12.32;6.32;;;6.30;96.40;;;;;;5054838;28;20527;-74
2021/01/13 04:32:12;;;;;;;7.23;6.50;;;6.30;96.40;;;;;;5054740;28;20182;-74
2021/01/13 04:34:39;;;;;;;7.68;6.53;;;6.30;96.40;;;;;;5054242;28;20851;-74
2021/01/13 04:37:07;;;;;;;9.32;6.60;;;6.30;96.30;;;;;;5053236;28;20634;-74
2021/01/13 04:39:34;;;;;;;10.38;6.90;;;6.30;96.40;;;;;;5053760;28;20214;-74
2021/01/13 04:42:04;;;;;;;10.57;8.32;;;6.30;96.30;;;;;;5054302;28;20573;-74
2021/01/13 04:44:33;;;;;;;12.90;7.15;;;6.30;96.30;;;;;;5053441;28;20545;-74
2021/01/13 04:47:05;;;;;;;9.32;7.50;;;6.30;96.40;;;;;;5054484;28;20326;-74
2021/01/13 04:49:33;;;;;;;11.35;9.00;;;6.30;96.40;;;;;;5053470;28;20622;-74
2021/01/13 04:52:09;;;;;;;7.90;7.25;;;6.30;96.30;;;;;;5053927;28;20181;-74
2021/01/13 04:54:39;;;;;;;7.80;6.72;;;6.30;96.20;;;;;;5052203;28;20170;-74
2021/01/13 04:57:17;;;;;;;13.70;9.73;;;6.30;96.30;;;;;;5054172;28;20178;-73
2021/01/13 05:00:07;;;;;;;8.82;7.47;;;6.30;96.40;;;;;;5054127;28;20198;-73
2021/01/13 05:03:14;;;;;;;10.10;7.78;;;6.30;96.60;;;;;;5053380;28;20196;-73
2021/01/13 05:05:55;;;;;;;9.57;8.43;;;6.30;96.60;;;;;;5053225;28;20224;-72
2021/01/13 05:08:24;;;;;;;10.05;9.20;;;6.20;96.80;;;;;;5033594;28;20163;-72
2021/01/13 05:10:54;;;;;;;10.15;8.15;;;6.20;97.20;;;;;;5034015;28;20167;-72
2021/01/13 05:13:24;;;;;;;9.77;8.63;;;6.20;97.20;;;;;;5051697;28;20201;-72
2021/01/13 05:15:57;;;;;;;10.90;9.82;;;6.20;97.50;;;;;;5054404;28;20170;-72
2021/01/13 05:18:53;;;;;;;10.55;9.30;;;6.10;97.50;;;;;;5052741;28;20209;-72
2021/01/13 05:21:25;;;;;;;11.02;9.45;;;6.10;97.80;;;;;;5053320;28;20184;-72
2021/01/13 05:23:53;;;;;;;11.95;9.60;;;6.10;97.90;;;;;;5053884;28;20177;-72
2021/01/13 05:26:27;;;;;;;11.40;10.02;;;6.10;97.90;;;;;;5053550;28;20181;-72
2021/01/13 05:29:04;;;;;;;22.10;8.27;;;6.20;97.80;;;;;;5053765;28;20205;-72
2021/01/13 05:31:35;;;;;;;14.45;9.43;;;6.20;97.80;;;;;;5052831;28;20180;-72
2021/01/13 05:34:02;;;;;;;12.93;10.80;;;6.20;97.80;;;;;;5033385;28;20174;-72
2021/01/13 05:36:32;;;;;;;16.20;9.98;;;6.20;97.80;;;;;;5038387;28;20644;-72
2021/01/13 05:39:12;;;;;;;11.55;9.60;;;6.10;97.90;;;;;;5052534;28;20209;-72
2021/01/13 05:41:39;;;;;;;10.43;8.50;;;6.20;98.20;;;;;;5050202;28;20370;-72
2021/01/13 05:44:06;;;;;;;9.43;8.45;;;6.10;98.10;;;;;;5053814;28;20189;-72
2021/01/13 05:46:47;;;;;;;13.48;8.98;;;6.20;98.30;;;;;;5052146;28;20231;-72
2021/01/13 05:49:13;;;;;;;10.45;9.55;;;6.10;98.30;;;;;;5052223;28;20196;-72
2021/01/13 05:51:41;;;;;;;14.20;8.43;;;6.10;98.40;;;;;;5052381;28;20425;-72
2021/01/13 05:54:15;;;;;;;11.45;8.63;;;6.00;98.70;;;;;;5053654;28;20170;-72
2021/01/13 05:56:41;;;;;;;10.05;8.10;;;6.00;98.90;;;;;;5052581;28;20227;-72
2021/01/13 05:59:11;;;;;;;9.20;8.40;;;6.00;99.00;;;;;;5053187;28;20206;-72
2021/01/13 06:01:52;;;;;;;10.55;8.93;;;6.00;99.10;;;;;;5052272;28;20257;-72
2021/01/13 06:04:18;;;;;;;16.30;9.77;;;6.10;99.30;;;;;;5047276;28;20558;-72
2021/01/13 06:07:05;;;;;;;9.73;8.70;;;6.00;99.20;;;;;;5052987;28;20255;-72
2021/01/13 06:09:40;;;;;;;13.13;9.70;;;6.00;99.50;;;;;;5052274;28;20180;-72
2021/01/13 06:12:12;;;;;;;12.88;9.48;;;6.10;99.50;;;;;;5042628;28;20174;-72
2021/01/13 06:14:38;;;;;;;11.27;8.65;;;6.10;99.50;;;;;;5052260;28;20158;-72
2021/01/13 06:17:05;;;;;;;8.38;7.47;;;6.10;99.80;;;;;;5052284;28;20182;-72
2021/01/13 06:19:33;;;;;;;13.52;8.68;;;6.10;99.90;;;;;;5051908;28;20213;-72
2021/01/13 06:22:09;;;;;;;10.00;8.02;;;6.00;99.90;;;;;;5052547;28;20243;-72
2021/01/13 06:24:35;;;;;;;11.43;9.63;;;6.00;99.90;;;;;;5052165;28;20185;-72
2021/01/13 06:27:19;;;;;;;11.45;7.82;;;6.10;99.90;;;;;;5051212;28;20180;-72
2021/01/13 06:30:00;;;;;;;12.70;10.80;;;6.10;99.90;;;;;;5043559;28;20204;-72
2021/01/13 06:32:34;;;;;;;12.35;9.70;;;6.10;99.90;;;;;;5049543;28;20166;-72
2021/01/13 06:35:24;;;;;;;10.57;9.50;;;6.00;99.90;;;;;;5051181;28;20527;-72
2021/01/13 06:37:52;;;;;;;10.50;9.30;;;6.00;99.90;;;;;;5032832;28;20170;-72
2021/01/13 06:40:21;;;;;;;10.55;9.00;;;6.00;99.90;;;;;;5039671;28;20261;-72
2021/01/13 06:42:47;;;;;;;11.05;9.10;;;6.00;99.90;;;;;;5051547;28;20744;-72
2021/01/13 06:45:13;;;;;;;13.60;9.13;;;6.00;99.90;;;;;;5052335;28;20182;-72
2021/01/13 06:47:55;;;;;;;10.45;8.25;;;6.00;99.90;;;;;;5051055;28;20178;-72
2021/01/13 06:50:31;;;;;;;11.90;9.98;;;6.10;99.90;;;;;;5051599;28;20213;-72
2021/01/13 06:52:58;;;;;;;10.52;9.05;;;6.20;99.90;;;;;;5046456;28;20182;-72
2021/01/13 06:55:34;;;;;;;12.65;10.30;;;6.30;99.90;;;;;;5052248;28;20223;-73
2021/01/13 06:58:17;;;;;;;10.75;9.75;;;6.30;99.90;;;;;;5051283;28;20675;-72
2021/01/13 07:00:44;;;;;;;10.02;9.02;;;6.20;99.90;;;;;;5051420;28;20220;-72
2021/01/13 07:03:30;;;;;;;13.68;11.52;;;6.10;99.90;;;;;;5052118;28;20185;-72
2021/01/13 07:06:01;;;;;;;11.35;10.18;;;6.10;99.90;;;;;;5052030;28;20170;-72
2021/01/13 07:08:28;;;;;;;14.35;12.27;;;6.10;99.90;;;;;;5050526;28;20182;-72
2021/01/13 07:11:20;;;;;;;16.75;14.05;;;6.10;99.90;;;;;;5051581;28;20498;-72
2021/01/13 07:14:01;;;;;;;15.57;13.93;;;6.10;99.90;;;;;;5050697;28;20196;-72
2021/01/13 07:16:28;;;;;;;18.77;13.73;;;6.10;99.90;;;;;;5045940;28;20201;-72
2021/01/13 07:18:59;;;;;;;20.38;15.18;;;6.10;99.90;;;;;;5050294;28;20212;-72
2021/01/13 07:21:41;;;;;;;17.20;14.20;;;6.10;99.90;;;;;;5051833;28;20231;-72
2021/01/13 07:24:15;;;;;;;18.77;13.73;;;6.20;99.90;;;;;;5050301;28;20174;-72
2021/01/13 07:26:42;;;;;;;17.25;12.80;;;6.20;99.90;;;;;;5050992;28;20216;-72
2021/01/13 07:29:09;;;;;;;16.02;14.18;;;6.20;99.90;;;;;;5050071;28;20228;-72
2021/01/13 07:31:35;;;;;;;20.88;13.43;;;6.20;99.90;;;;;;5050268;28;20178;-72
2021/01/13 07:34:33;;;;;;;17.67;13.60;;;6.20;99.90;;;;;;5051569;28;20188;-72
2021/01/13 07:37:10;;;;;;;16.40;12.45;;;6.20;99.90;;;;;;5051840;28;20165;-72
2021/01/13 07:39:41;;;;;;;15.63;12.50;;;6.20;99.90;;;;;;5051259;28;20189;-72
2021/01/13 07:42:38;;;;;;;17.88;14.02;;;6.20;99.90;;;;;;5048319;28;20272;-72
2021/01/13 07:45:07;;;;;;;20.58;13.60;;;6.30;99.90;;;;;;5041743;28;20245;-72
2021/01/13 07:47:45;;;;;;;19.30;13.25;;;6.20;99.90;;;;;;5048082;28;20174;-72
2021/01/13 07:50:13;;;;;;;18.88;13.07;;;6.20;99.90;;;;;;5079221;28;20189;-73
2021/01/13 07:52:50;;;;;;;14.07;12.38;;;6.30;99.90;;;;;;5050905;28;20186;-73
2021/01/13 07:55:20;;;;;;;20.17;13.73;;;6.30;99.90;;;;;;5051040;28;20186;-73
2021/01/13 07:57:57;;;;;;;17.20;13.07;;;6.30;99.90;;;;;;5049964;28;20173;-72
2021/01/13 08:00:37;;;;;;;20.73;13.80;;;6.30;99.90;;;;;;5037119;28;20388;-72
2021/01/13 08:03:18;;;;;;;24.60;13.60;;;6.20;99.90;;;;;;5042913;28;20196;-72
2021/01/13 08:06:22;;;;;;;17.88;12.68;;;6.20;99.90;;;;;;5050374;28;20185;-72
2021/01/13 08:09:07;;;;;;;13.02;11.63;;;6.30;99.90;;;;;;5050670;28;20330;-72
2021/01/13 08:12:04;;;;;;;17.27;13.10;;;6.20;99.90;;;;;;5081449;28;20934;-73
2021/01/13 08:14:29;;;;;;;16.05;12.32;;;6.30;99.90;;;;;;5054199;28;20166;-74
2021/01/13 08:17:17;;;;;;;14.47;13.07;;;7.00;99.90;;;;;;5054744;28;20265;-73
2021/01/13 08:19:49;;;;;;;12.50;11.20;;;7.50;99.90;;;;;;5054264;28;20194;-73
2021/01/13 08:22:21;;;;;;;14.37;12.97;;;8.10;99.90;;;;;;5055061;28;20734;-73
2021/01/13 08:25:01;;;;;;;11.43;10.20;;;8.60;99.90;;;;;;5054474;28;20431;-73
2021/01/13 08:27:29;;;;;;;12.90;11.50;;;9.00;99.70;;;;;;5054725;28;20411;-74
2021/01/13 08:29:59;;;;;;;12.83;9.37;;;9.20;95.80;;;;;;5054999;28;20442;-73
2021/01/13 08:32:41;;;;;;;13.70;11.13;;;9.40;96.90;;;;;;5054968;28;20432;-73
2021/01/13 08:35:08;;;;;;;9.90;9.00;;;9.80;95.60;;;;;;5070604;28;20502;-73
2021/01/13 08:37:35;;;;;;;10.20;9.17;;;9.90;96.10;;;;;;5050741;28;20503;-72
2021/01/13 08:40:29;;;;;;;14.53;11.17;;;10.00;93.30;;;;;;5055005;28;20510;-72
2021/01/13 08:43:05;;;;;;;16.50;10.10;;;9.80;92.60;;;;;;5054268;28;20483;-72
2021/01/13 08:45:46;;;;;;;12.23;10.23;;;9.30;92.60;;;;;;5054291;28;20436;-72
2021/01/13 08:48:19;;;;;;;14.13;10.10;;;9.00;93.00;;;;;;5054974;28;20415;-72
2021/01/13 08:51:03;;;;;;;11.20;10.10;;;8.70;93.80;;;;;;5054504;28;20454;-72
2021/01/13 08:53:29;;;;;;;11.90;10.40;;;8.30;94.40;;;;;;5054086;28;20411;-72
2021/01/13 08:55:55;;;;;;;17.17;10.37;;;8.10;95.00;;;;;;5054530;28;20891;-73
2021/01/13 08:58:35;;;;;;;10.47;9.43;;;7.90;95.30;;;;;;5052947;28;20449;-72
2021/01/13 09:01:06;;;;;;;9.90;8.90;;;7.70;95.80;;;;;;5045533;28;20425;-72
2021/01/13 09:03:37;;;;;;;13.33;11.17;;;7.50;96.30;;;;;;5054485;28;20482;-72
2021/01/13 09:06:22;;;;;;;10.33;9.33;;;7.30;96.70;;;;;;5053978;28;20552;-72
2021/01/13 09:08:57;;;;;;;12.67;11.57;;;7.20;97.20;;;;;;5053279;28;20507;-73
2021/01/13 09:11:39;;;;;;;14.87;9.73;;;7.20;97.60;;;;;;5052906;28;20909;-71
2021/01/13 09:14:24;;;;;;;13.30;9.20;;;7.20;97.60;;;;;;5054218;28;20890;-71
2021/01/13 09:16:53;;;;;;;10.13;9.10;;;7.20;97.70;;;;;;5052837;28;21117;-72
2021/01/13 09:19:37;;;;;;;16.60;9.87;;;7.10;98.00;;;;;;5053869;28;20454;-72
2021/01/13 09:22:09;;;;;;;9.83;8.70;;;7.00;98.10;;;;;;5054053;28;20406;-72
2021/01/13 09:24:42;;;;;;;10.37;9.37;;;7.00;98.20;;;;;;5052979;28;20460;-72
2021/01/13 09:27:12;;;;;;;12.37;11.17;;;7.00;98.10;;;;;;5054031;28;20413;-72
2021/01/13 09:29:54;;;;;;;12.70;8.53;;;6.90;98.10;;;;;;5052413;28;20409;-72
2021/01/13 09:32:21;;;;;;;13.53;8.53;;;7.00;98.20;;;;;;5054112;28;20479;-72
2021/01/13 09:34:48;;;;;;;13.60;9.30;;;7.00;98.20;;;;;;5053783;28;20422;-72
2021/01/13 09:37:15;;;;;;;11.13;10.03;;;7.00;98.20;;;;;;5054094;28;20392;-72
2021/01/13 09:39:55;;;;;;;12.57;9.87;;;7.10;98.10;;;;;;5053342;28;20806;-72
2021/01/13 09:42:23;;;;;;;10.77;9.57;;;7.00;98.00;;;;;;5053016;28;21000;-72
2021/01/13 09:45:00;;;;;;;15.23;9.83;;;7.00;97.90;;;;;;5053284;28;20418;-71
2021/01/13 09:47:27;;;;;;;10.23;8.50;;;6.90;98.10;;;;;;5053845;28;20877;-71
2021/01/13 09:49:57;;;;;;;13.33;10.20;;;6.90;98.20;;;;;;5052887;28;20175;-72
2021/01/13 09:52:36;;;;;;;18.27;10.90;;;6.90;98.10;;;;;;5053381;28;20924;-71
2021/01/13 09:55:08;;;;;;;11.00;9.80;;;6.90;98.30;;;;;;5053938;28;20387;-72
2021/01/13 09:57:34;;;;;;;15.00;11.00;;;6.90;98.10;;;;;;5052766;28;20394;-72
2021/01/13 10:00:19;;;;;;;13.80;10.48;;;6.90;98.10;;;;;;5053546;28;20450;-72
2021/01/13 10:02:47;;;;;;;16.63;10.77;;;6.80;98.20;;;;;;5051730;28;20296;-72
2021/01/13 10:05:13;;;;;;;12.67;10.70;;;6.80;98.30;;;;;;5053728;28;20217;-72
2021/01/13 10:07:40;;;;;;;14.30;11.10;;;6.90;98.30;;;;;;5052924;28;20416;-72
2021/01/13 10:10:08;;;;;;;14.70;13.30;;;6.80;98.30;;;;;;5053418;28;20711;-71
2021/01/13 10:12:41;;;;;;;16.23;10.18;;;6.90;98.30;;;;;;5052259;28;20391;-71
2021/01/13 10:15:10;;;;;;;11.83;10.63;;;6.90;98.60;;;;;;5053514;28;20524;-71
2021/01/13 10:17:37;;;;;;;13.47;10.07;;;6.80;98.30;;;;;;5052619;28;20378;-72
2021/01/13 10:20:12;;;;;;;12.63;11.43;;;6.80;98.60;;;;;;5053191;28;20432;-72
2021/01/13 10:22:39;;;;;;;15.03;12.17;;;6.90;98.60;;;;;;5052618;28;20388;-72
2021/01/13 10:25:07;;;;;;;13.43;9.83;;;7.00;98.40;;;;;;5052728;28;20381;-71
2021/01/13 10:27:33;;;;;;;19.33;11.80;;;7.00;98.50;;;;;;5053311;28;20493;-71
2021/01/13 10:29:59;;;;;;;14.27;12.73;;;7.10;98.10;;;;;;5053058;28;20782;-71
2021/01/13 10:32:25;;;;;;;12.20;9.70;;;7.20;98.00;;;;;;5053003;28;20387;-72
2021/01/13 10:34:52;;;;;;;17.23;13.47;;;7.20;97.60;;;;;;5051022;28;20167;-72
2021/01/13 10:37:18;;;;;;;13.53;11.97;;;7.30;97.60;;;;;;5052951;28;20750;-72
2021/01/13 10:39:44;;;;;;;13.83;10.07;;;7.30;97.50;;;;;;5051969;28;20844;-72
2021/01/13 10:42:10;;;;;;;12.23;11.03;;;7.30;97.80;;;;;;5052275;28;20468;-72
2021/01/13 10:44:36;;;;;;;13.57;11.80;;;7.40;97.60;;;;;;5052183;28;20706;-72
2021/01/13 10:47:08;;;;;;;13.77;10.50;;;7.40;97.50;;;;;;5052843;28;20415;-72
2021/01/13 10:49:33;;;;;;;13.13;9.70;;;7.40;97.70;;;;;;5052848;28;20172;-72
2021/01/13 10:52:01;;;;;;;12.90;11.53;;;7.50;97.40;;;;;;5051020;28;20412;-72
2021/01/13 10:54:29;;;;;;;11.50;10.30;;;7.50;97.40;;;;;;5052883;28;20228;-72
2021/01/13 10:57:04;;;;;;;14.03;11.30;;;7.60;97.30;;;;;;5052052;28;20704;-72
2021/01/13 10:59:30;;;;;;;15.83;10.40;;;7.60;97.30;;;;;;5052786;28;20515;-72
2021/01/13 11:02:07;;;;;;;16.23;11.57;;;7.60;97.40;;;;;;5052014;28;20405;-72
2021/01/13 11:04:46;;;;;;;11.77;10.57;;;7.60;97.30;;;;;;5052546;28;20395;-72
2021/01/13 11:07:17;;;;;;;11.67;10.03;;;7.60;97.00;;;;;;5052254;28;20413;-72
2021/01/13 11:09:52;;;;;;;13.97;11.00;;;7.70;97.00;;;;;;5051882;28;20422;-72
2021/01/13 11:12:19;;;;;;;16.33;13.00;;;7.70;96.90;;;;;;5051837;28;20392;-72
2021/01/13 11:14:47;;;;;;;11.40;10.30;;;7.70;96.90;;;;;;5051875;28;20393;-72
2021/01/13 11:17:18;;;;;;;16.80;11.47;;;7.60;96.90;;;;;;5052351;28;20454;-72
2021/01/13 11:19:58;;;;;;;13.43;12.03;;;7.60;97.20;;;;;;5051869;28;20496;-72
2021/01/13 11:22:44;;;;;;;12.93;9.83;;;7.70;97.00;;;;;;5051197;28;20837;-71
2021/01/13 11:25:41;;;;;;;14.60;11.57;;;7.70;96.70;;;;;;5052009;28;20412;-72
2021/01/13 11:28:13;;;;;;;12.77;11.47;;;7.60;96.50;;;;;;5052070;28;20749;-72
2021/01/13 11:30:50;;;;;;;12.37;10.33;;;7.60;96.50;;;;;;5051673;28;20412;-72
2021/01/13 11:33:20;;;;;;;12.77;11.47;;;7.60;96.80;;;;;;5052322;28;20377;-71
2021/01/13 11:35:47;;;;;;;12.10;10.63;;;7.60;97.00;;;;;;5051643;28;20919;-72
2021/01/13 11:38:37;;;;;;;13.17;10.47;;;7.40;96.70;;;;;;5052179;28;20458;-72
2021/01/13 11:41:21;;;;;;;12.43;11.33;;;7.30;97.00;;;;;;5051924;28;20431;-72
2021/01/13 11:43:52;;;;;;;14.43;10.60;;;7.20;97.10;;;;;;5050970;28;20473;-72
2021/01/13 11:46:28;;;;;;;12.40;11.10;;;7.30;97.40;;;;;;5052144;28;20405;-72
2021/01/13 11:49:13;;;;;;;16.23;12.80;;;7.20;97.80;;;;;;5054729;28;20863;-71
2021/01/13 11:51:42;;;;;;;20.90;11.00;;;7.20;98.20;;;;;;5055426;28;20402;-72
2021/01/13 11:54:09;;;;;;;14.50;10.13;;;7.20;98.40;;;;;;5055662;28;20418;-72
2021/01/13 11:56:35;;;;;;;13.07;11.77;;;7.20;98.10;;;;;;5053741;28;20391;-72
2021/01/13 11:59:01;;;;;;;14.70;10.77;;;7.10;98.20;;;;;;5053816;28;20468;-72
2021/01/13 12:01:27;;;;;;;17.30;10.60;;;7.10;98.40;;;;;;5053850;28;20500;-72
2021/01/13 12:04:01;;;;;;;12.77;11.70;;;7.20;98.30;;;;;;5054996;28;20440;-72
2021/01/13 12:06:26;;;;;;;15.43;10.35;;;7.30;97.90;;;;;;5055387;28;20857;-72
2021/01/13 12:08:52;;;;;;;15.63;10.23;;;7.30;98.10;;;;;;5054701;28;20308;-72
2021/01/13 12:11:18;;;;;;;13.60;11.60;;;7.30;97.50;;;;;;5055397;28;20642;-72
2021/01/13 12:13:45;;;;;;;13.40;10.67;;;7.20;97.20;;;;;;5050981;28;20393;-71
2021/01/13 12:16:19;;;;;;;11.25;10.13;;;7.20;97.00;;;;;;5055081;28;20175;-72
2021/01/13 12:18:47;;;;;;;10.82;9.57;;;7.10;97.00;;;;;;5054030;28;20197;-72
2021/01/13 12:21:13;;;;;;;13.47;10.30;;;7.00;97.30;;;;;;5055028;28;20220;-71
2021/01/13 12:23:40;;;;;;;11.47;9.20;;;7.10;97.90;;;;;;5046704;28;20413;-72
2021/01/13 12:26:21;;;;;;;13.70;11.73;;;7.10;97.50;;;;;;5046203;28;20225;-72
2021/01/13 12:28:49;;;;;;;13.20;10.50;;;7.10;97.20;;;;;;5052263;28;20437;-71
2021/01/13 12:31:15;;;;;;;11.30;9.87;;;7.10;97.00;;;;;;5036906;28;20764;-72
2021/01/13 12:33:51;;;;;;;14.20;10.80;;;7.20;97.10;;;;;;5053035;28;20479;-71
2021/01/13 12:36:20;;;;;;;10.70;9.40;;;7.20;97.20;;;;;;5052116;28;20804;-72
2021/01/13 12:38:46;;;;;;;12.03;10.27;;;7.20;97.10;;;;;;5053446;28;20485;-72
2021/01/13 12:41:19;;;;;;;12.30;9.80;;;7.10;97.30;;;;;;5053554;28;20455;-72
2021/01/13 12:43:45;;;;;;;10.40;8.97;;;7.20;97.20;;;;;;5052746;28;20376;-71
2021/01/13 12:46:11;;;;;;;13.57;9.30;;;7.20;96.90;;;;;;5052949;28;20395;-71
2021/01/13 12:48:37;;;;;;;10.87;9.77;;;7.10;97.00;;;;;;5036977;28;20511;-73
2021/01/13 12:51:04;;;;;;;10.17;9.23;;;7.20;97.00;;;;;;5054176;28;20475;-73
2021/01/13 12:53:30;;;;;;;11.23;9.47;;;7.20;97.00;;;;;;5053975;28;20197;-73
2021/01/13 12:55:56;;;;;;;9.60;8.60;;;7.30;97.20;;;;;;5049987;28;20400;-73
2021/01/13 12:58:22;;;;;;;10.27;9.23;;;7.20;96.90;;;;;;5053528;28;20245;-72
2021/01/13 13:00:47;;;;;;;11.10;8.97;;;7.30;96.90;;;;;;5053146;28;20178;-73
2021/01/13 13:03:13;;;;;;;9.57;8.67;;;7.40;96.80;;;;;;5052639;28;20250;-73
2021/01/13 13:05:39;;;;;;;10.50;9.27;;;7.30;96.20;;;;;;5054428;28;20171;-73
2021/01/13 13:08:05;;;;;;;11.77;9.67;;;7.20;96.20;;;;;;5053272;28;20174;-73
2021/01/13 13:10:31;;;;;;;10.83;9.10;;;7.10;96.20;;;;;;5054102;28;20914;-73
2021/01/13 13:12:57;;;;;;;10.33;9.07;;;7.10;96.30;;;;;;5053338;28;20181;-73